Time;durP1;ratioP1;P1;durP2;ratioP2;P2;SDS_P1;SDS_P2;PMS_P1;PMS_P2;Temp;Humidity;BMP_temperature;BMP_pressure;BME280_temperature;BME280_humidity;BME280_pressure;Samples;Min_cycle;Max_cycle;Signal;HPM_P1;HPM_P2
2021/08/29 00:00:14;;;;;;;8.40;7.15;;;;;;;8.98;100.00;95933.63;1031145;28;20121;-70
2021/08/29 00:00:44;;;;;;;7.85;6.95;;;;;;;8.99;100.00;95929.97;1031442;28;20027;-70
2021/08/29 00:01:15;;;;;;;6.93;6.22;;;;;;;8.93;100.00;95913.44;1030419;28;20069;-69
2021/08/29 00:01:45;;;;;;;6.90;6.20;;;;;;;9.03;100.00;95925.03;1030674;28;20085;-70
2021/08/29 00:02:16;;;;;;;7.10;5.93;;;;;;;8.98;100.00;95923.16;1035391;28;20030;-70
2021/08/29 00:02:46;;;;;;;7.43;6.65;;;;;;;9.05;100.00;95928.97;1035256;28;20069;-70
2021/08/29 00:03:17;;;;;;;8.02;6.35;;;;;;;9.07;100.00;95923.50;1034702;28;20073;-70
2021/08/29 00:03:47;;;;;;;7.25;5.78;;;;;;;9.10;100.00;95930.88;1035464;28;20072;-70
2021/08/29 00:04:18;;;;;;;8.55;6.65;;;;;;;9.09;100.00;95922.22;1035227;28;20026;-70
2021/08/29 00:04:48;;;;;;;8.25;6.10;;;;;;;9.11;100.00;95929.81;1035370;28;20025;-70
2021/08/29 00:05:18;;;;;;;7.18;6.18;;;;;;;9.12;100.00;95918.28;1031196;28;20030;-70
2021/08/29 00:05:49;;;;;;;6.72;5.38;;;;;;;9.13;100.00;95923.31;1030087;28;20030;-70
2021/08/29 00:06:19;;;;;;;6.65;6.00;;;;;;;9.14;100.00;95922.25;1031646;28;20503;-70
2021/08/29 00:06:50;;;;;;;6.07;5.47;;;;;;;9.16;100.00;95925.44;1034422;28;20030;-69
2021/08/29 00:07:20;;;;;;;6.35;5.70;;;;;;;9.17;100.00;95929.63;1039355;28;20025;-70
2021/08/29 00:07:51;;;;;;;7.45;6.32;;;;;;;9.12;100.00;95915.69;1043840;28;20021;-68
2021/08/29 00:08:21;;;;;;;6.15;5.43;;;;;;;9.16;100.00;95919.41;1038973;28;20048;-68
2021/08/29 00:08:52;;;;;;;6.65;5.95;;;;;;;9.20;100.00;95925.72;1035612;28;20060;-70
2021/08/29 00:09:22;;;;;;;7.88;6.18;;;;;;;9.16;100.00;95914.16;1031146;28;20404;-70
2021/08/29 00:09:52;;;;;;;6.13;5.47;;;;;;;9.19;100.00;95911.84;1026997;28;20023;-69
2021/08/29 00:10:23;;;;;;;6.40;5.80;;;;;;;9.21;100.00;95922.84;1027363;28;20130;-69
2021/08/29 00:10:53;;;;;;;6.57;5.60;;;;;;;9.21;100.00;95917.59;1027181;28;20026;-70
2021/08/29 00:11:24;;;;;;;6.53;5.93;;;;;;;9.19;100.00;95918.91;1030517;28;20034;-71
2021/08/29 00:11:55;;;;;;;8.40;6.13;;;;;;;9.25;100.00;95917.09;1027446;28;20110;-69
2021/08/29 00:12:25;;;;;;;7.95;6.65;;;;;;;9.14;100.00;95906.53;1031167;28;20037;-69
2021/08/29 00:12:56;;;;;;;6.57;5.88;;;;;;;9.28;100.00;95921.84;1027224;28;20027;-71
2021/08/29 00:13:26;;;;;;;7.47;6.40;;;;;;;9.28;100.00;95920.00;1027285;28;20031;-69
2021/08/29 00:13:57;;;;;;;6.38;5.70;;;;;;;9.27;100.00;95920.28;1031097;28;20022;-69
2021/08/29 00:14:27;;;;;;;7.15;5.82;;;;;;;9.28;100.00;95921.84;1031552;28;20274;-69
2021/08/29 00:14:58;;;;;;;8.38;5.32;;;;;;;9.28;100.00;95920.00;1038869;28;20064;-70
2021/08/29 00:15:28;;;;;;;6.15;5.47;;;;;;;9.29;100.00;95918.19;1036317;28;20430;-69
2021/08/29 00:15:59;;;;;;;6.80;5.30;;;;;;;9.30;100.00;95917.16;1035459;28;20026;-69
2021/08/29 00:16:30;;;;;;;6.43;5.78;;;;;;;9.29;100.00;95912.94;1035341;28;20113;-69
2021/08/29 00:17:00;;;;;;;6.65;6.05;;;;;;;9.30;100.00;95914.53;1038662;28;20165;-69
2021/08/29 00:17:33;;;;;;;6.47;5.60;;;;;;;9.35;100.00;95922.44;1026836;28;20442;-70
2021/08/29 00:18:04;;;;;;;12.43;6.22;;;;;;;9.35;100.00;95917.97;1023128;29;20179;-70
2021/08/29 00:18:35;;;;;;;6.63;5.85;;;;;;;9.35;100.00;95917.97;1029609;28;21143;-69
2021/08/29 00:19:05;;;;;;;6.57;5.88;;;;;;;9.16;100.00;95886.16;1035177;28;20588;-70
2021/08/29 00:19:36;;;;;;;8.32;6.40;;;;;;;9.36;100.00;95916.16;1030558;28;20447;-70
2021/08/29 00:20:06;;;;;;;7.85;5.63;;;;;;;9.38;100.00;95921.94;1031695;28;20038;-69
2021/08/29 00:20:37;;;;;;;9.18;6.68;;;;;;;9.42;100.00;95917.75;1023111;29;20354;-69
2021/08/29 00:21:07;;;;;;;8.15;6.43;;;;;;;9.42;100.00;95917.75;1031179;28;20491;-70
2021/08/29 00:21:38;;;;;;;8.13;6.50;;;;;;;9.43;100.00;95914.13;1029773;28;20038;-70
2021/08/29 00:22:08;;;;;;;8.02;6.85;;;;;;;9.42;100.00;95909.91;1035124;28;20025;-70
2021/08/29 00:22:39;;;;;;;8.32;7.00;;;;;;;9.41;100.00;95909.13;1027198;28;20425;-70
2021/08/29 00:23:09;;;;;;;6.55;5.95;;;;;;;9.44;100.00;95915.69;1026899;28;20413;-70
2021/08/29 00:23:40;;;;;;;9.65;6.40;;;;;;;9.47;100.00;95917.03;1022700;28;20633;-70
2021/08/29 00:24:10;;;;;;;9.45;7.53;;;;;;;9.49;100.00;95913.13;1031204;28;20411;-70
2021/08/29 00:24:41;;;;;;;7.10;6.40;;;;;;;9.51;100.00;95915.47;1030593;28;20026;-68
2021/08/29 00:25:11;;;;;;;6.88;6.18;;;;;;;9.51;100.00;95921.50;1035247;28;20045;-70
2021/08/29 00:25:42;;;;;;;8.73;6.63;;;;;;;9.54;100.00;95915.78;1031051;28;20081;-69
2021/08/29 00:26:13;;;;;;;8.80;6.72;;;;;;;9.56;100.00;95918.94;1030971;28;20084;-69
2021/08/29 00:26:43;;;;;;;9.10;6.97;;;;;;;9.59;100.00;95909.75;1038967;28;20305;-70
2021/08/29 00:27:14;;;;;;;8.68;7.18;;;;;;;9.57;100.00;95907.41;1034256;28;20599;-69
2021/08/29 00:27:44;;;;;;;8.88;7.47;;;;;;;9.56;100.00;95908.47;1023147;29;20493;-70
2021/08/29 00:28:15;;;;;;;7.45;6.40;;;;;;;9.59;100.00;95921.06;1022813;28;20027;-70
2021/08/29 00:28:45;;;;;;;9.23;6.40;;;;;;;9.59;100.00;95907.97;1027280;28;20069;-70
2021/08/29 00:29:16;;;;;;;9.05;7.35;;;;;;;9.59;100.00;95913.19;1027166;28;20458;-70
2021/08/29 00:29:46;;;;;;;8.80;7.28;;;;;;;9.59;100.00;95909.75;1026839;28;20030;-70
2021/08/29 00:30:16;;;;;;;10.32;7.72;;;;;;;9.61;100.00;95910.31;1026993;28;20026;-70
2021/08/29 00:30:47;;;;;;;8.63;7.05;;;;;;;9.59;100.00;95910.56;1026294;28;20082;-70
2021/08/29 00:31:20;;;;;;;8.43;7.05;;;;;;;9.59;100.00;95907.97;1030227;28;20053;-69
2021/08/29 00:31:50;;;;;;;8.18;7.07;;;;;;;9.59;100.00;95910.56;1036026;28;20253;-70
2021/08/29 00:32:21;;;;;;;7.20;6.35;;;;;;;9.60;100.00;95909.53;1038472;28;20033;-70
2021/08/29 00:32:52;;;;;;;11.88;7.47;;;;;;;9.58;100.00;95906.34;1035916;28;20056;-69
2021/08/29 00:33:23;;;;;;;8.10;6.53;;;;;;;9.58;100.00;95906.34;1038977;28;20027;-70
2021/08/29 00:33:53;;;;;;;9.07;7.18;;;;;;;9.62;100.00;95904.84;1039331;28;20678;-69
2021/08/29 00:34:23;;;;;;;8.13;6.57;;;;;;;9.57;100.00;95899.56;1033093;28;20026;-70
2021/08/29 00:34:54;;;;;;;9.15;7.25;;;;;;;9.63;100.00;95913.47;1031251;28;20399;-70
2021/08/29 00:35:24;;;;;;;10.07;7.18;;;;;;;9.62;100.00;95914.50;1027122;28;20389;-70
2021/08/29 00:35:56;;;;;;;9.30;7.28;;;;;;;9.63;100.00;95913.47;1023022;29;20019;-69
2021/08/29 00:36:26;;;;;;;8.38;7.13;;;;;;;9.61;100.00;95911.09;1026704;28;20440;-70
2021/08/29 00:36:57;;;;;;;7.63;6.82;;;;;;;9.61;100.00;95913.72;1030843;28;20293;-70
2021/08/29 00:37:27;;;;;;;7.50;6.50;;;;;;;9.63;100.00;95911.66;1023153;28;20077;-70
2021/08/29 00:37:58;;;;;;;9.27;6.88;;;;;;;9.64;100.00;95902.75;1027048;28;20428;-69
2021/08/29 00:38:28;;;;;;;7.70;6.90;;;;;;;9.64;100.00;95907.97;1030510;28;20030;-70
2021/08/29 00:38:59;;;;;;;10.10;6.80;;;;;;;9.66;100.00;95905.91;1018938;29;20106;-70
2021/08/29 00:39:30;;;;;;;6.68;6.07;;;;;;;9.66;100.00;95902.50;1019093;29;20525;-69
2021/08/29 00:40:00;;;;;;;8.93;7.93;;;;;;;9.65;100.00;95904.31;1023028;29;20258;-67
2021/08/29 00:40:31;;;;;;;9.10;6.85;;;;;;;9.58;100.00;95901.13;1027333;28;20098;-70
2021/08/29 00:41:11;;;;;;;12.32;7.60;;;;;;;9.66;100.00;95910.38;1022372;29;20169;-70
2021/08/29 00:41:42;;;;;;;6.85;6.05;;;;;;;9.65;100.00;95906.94;1030785;28;20034;-70
2021/08/29 00:42:12;;;;;;;8.15;6.60;;;;;;;9.66;100.00;95913.78;1027137;28;20345;-70
2021/08/29 00:42:44;;;;;;;8.38;6.50;;;;;;;9.65;100.00;95909.53;1033044;28;20818;-69
2021/08/29 00:43:15;;;;;;;7.60;6.82;;;;;;;9.63;100.00;95903.78;1027218;28;20019;-70
2021/08/29 00:43:45;;;;;;;7.97;6.68;;;;;;;9.64;100.00;95907.97;1030804;28;20285;-70
2021/08/29 00:44:16;;;;;;;8.70;7.63;;;;;;;9.65;100.00;95908.75;1030260;28;20410;-70
2021/08/29 00:44:47;;;;;;;9.85;7.95;;;;;;;9.64;100.00;95904.56;1023189;28;20023;-70
2021/08/29 00:45:20;;;;;;;10.50;7.50;;;;;;;9.66;100.00;95905.13;1031069;28;20515;-70
2021/08/29 00:45:54;;;;;;;9.07;7.20;;;;;;;9.62;100.00;95910.06;1032062;28;20487;-70
2021/08/29 00:46:24;;;;;;;7.97;6.88;;;;;;;9.62;100.00;95906.66;1027174;28;20284;-70
2021/08/29 00:46:55;;;;;;;14.00;7.78;;;;;;;9.59;100.00;95901.91;1030957;28;20261;-71
2021/08/29 00:47:25;;;;;;;12.02;7.88;;;;;;;9.56;100.00;95897.19;1019352;29;20028;-70
2021/08/29 00:47:57;;;;;;;8.13;6.72;;;;;;;9.58;100.00;95901.13;1027139;28;20022;-70
2021/08/29 00:48:27;;;;;;;8.85;6.63;;;;;;;9.59;100.00;95905.34;1031443;28;20089;-70
2021/08/29 00:48:58;;;;;;;9.23;6.70;;;;;;;9.60;100.00;95904.28;1027016;28;20373;-70
2021/08/29 00:49:28;;;;;;;8.43;7.43;;;;;;;9.57;100.00;95904.00;1029766;28;20018;-70
2021/08/29 00:49:59;;;;;;;8.80;7.32;;;;;;;9.60;100.00;95906.91;1027361;28;20023;-70
2021/08/29 00:50:30;;;;;;;7.32;6.50;;;;;;;9.58;100.00;95914.22;1035246;28;20115;-70
2021/08/29 00:51:00;;;;;;;9.57;6.97;;;;;;;9.56;100.00;95902.44;1030633;28;20562;-71
2021/08/29 00:51:34;;;;;;;9.73;7.03;;;;;;;9.61;100.00;95911.09;1026659;28;20497;-70
2021/08/29 00:52:04;;;;;;;7.95;7.03;;;;;;;9.59;100.00;95902.72;1039377;28;20442;-68
2021/08/29 00:52:41;;;;;;;9.98;7.60;;;;;;;9.60;100.00;95899.06;1030998;28;20778;-70
2021/08/29 00:53:13;;;;;;;11.98;8.07;;;;;;;9.61;100.00;95910.31;1039031;28;20106;-72
2021/08/29 00:53:47;;;;;;;8.60;7.25;;;;;;;9.59;100.00;95905.34;1027151;28;20266;-71
2021/08/29 00:54:18;;;;;;;10.23;7.95;;;;;;;9.60;100.00;95903.50;1026807;28;20262;-70
2021/08/29 00:54:48;;;;;;;9.95;7.20;;;;;;;9.59;100.00;95902.72;1019158;29;20299;-70
2021/08/29 00:55:19;;;;;;;8.80;7.13;;;;;;;9.59;100.00;95902.72;1027117;28;20029;-70
2021/08/29 00:55:53;;;;;;;10.02;7.75;;;;;;;9.61;100.00;95903.25;1023232;29;20031;-70
2021/08/29 00:56:23;;;;;;;8.23;6.95;;;;;;;9.62;100.00;95904.84;1030592;28;20018;-71
2021/08/29 00:56:54;;;;;;;9.68;6.93;;;;;;;9.60;100.00;95899.06;1031215;28;20296;-67
2021/08/29 00:57:24;;;;;;;7.38;6.43;;;;;;;9.63;100.00;95911.66;1027527;28;20074;-69
2021/08/29 00:57:55;;;;;;;9.23;7.57;;;;;;;9.64;100.00;95905.34;1033386;28;20030;-69
2021/08/29 00:58:25;;;;;;;10.27;7.88;;;;;;;9.63;100.00;95903.00;1023679;28;20405;-69
2021/08/29 00:58:56;;;;;;;8.80;6.72;;;;;;;9.63;100.00;95903.78;1026914;28;20027;-69
2021/08/29 00:59:27;;;;;;;10.00;7.30;;;;;;;9.63;100.00;95906.41;1027156;28;20026;-69
2021/08/29 00:59:58;;;;;;;7.47;6.68;;;;;;;9.63;100.00;95910.88;1035205;28;20498;-69
2021/08/29 01:00:29;;;;;;;8.05;7.18;;;;;;;9.66;100.00;95908.53;1027319;28;20278;-69
2021/08/29 01:01:00;;;;;;;8.93;7.65;;;;;;;9.67;100.00;95910.09;1023629;29;20015;-69
2021/08/29 01:01:42;;;;;;;9.43;7.63;;;;;;;9.68;100.00;95905.63;1026260;28;20274;-69
2021/08/29 01:02:18;;;;;;;7.40;6.70;;;;;;;9.67;100.00;95901.44;1031749;28;20030;-68
2021/08/29 01:02:49;;;;;;;7.60;6.78;;;;;;;9.68;100.00;95905.63;1019706;28;20282;-69
2021/08/29 01:03:24;;;;;;;7.85;6.53;;;;;;;9.67;100.00;95904.06;1031071;28;20269;-69
2021/08/29 01:03:55;;;;;;;8.95;6.88;;;;;;;9.68;100.00;95903.81;1031507;28;20069;-69
2021/08/29 01:04:31;;;;;;;8.93;7.78;;;;;;;9.72;100.00;95905.94;1026789;28;20755;-68
2021/08/29 01:05:10;;;;;;;7.78;6.85;;;;;;;9.73;100.00;95908.31;1031551;28;20269;-69
2021/08/29 01:05:44;;;;;;;10.18;7.35;;;;;;;9.74;100.00;95899.41;1026457;28;20892;-67
2021/08/29 01:06:24;;;;;;;7.78;6.88;;;;;;;9.75;100.00;95900.19;1018866;29;20274;-68
2021/08/29 01:07:02;;;;;;;8.15;6.80;;;;;;;9.76;100.00;95899.13;1027234;28;20799;-68
2021/08/29 01:07:43;;;;;;;7.90;7.10;;;;;;;9.78;100.00;95900.47;1031316;28;20034;-68
2021/08/29 01:08:16;;;;;;;8.82;6.93;;;;;;;9.75;100.00;95900.97;1034733;28;20257;-69
2021/08/29 01:08:48;;;;;;;10.20;6.93;;;;;;;9.69;100.00;95894.09;1031205;28;20341;-68
2021/08/29 01:09:19;;;;;;;9.13;6.93;;;;;;;9.74;100.00;95902.00;1027432;28;20640;-70
2021/08/29 01:09:52;;;;;;;8.00;6.80;;;;;;;9.73;100.00;95900.44;1028343;28;20270;-70
2021/08/29 01:10:28;;;;;;;8.90;7.03;;;;;;;9.75;100.00;95900.97;1031384;28;20089;-70
2021/08/29 01:11:03;;;;;;;9.60;7.13;;;;;;;9.74;100.00;95909.09;1027058;28;20911;-69
2021/08/29 01:11:33;;;;;;;8.82;7.43;;;;;;;9.75;100.00;95905.41;1020025;29;20297;-69
2021/08/29 01:12:04;;;;;;;8.00;6.65;;;;;;;9.69;100.00;95891.50;1023371;29;20378;-71
2021/08/29 01:12:35;;;;;;;8.20;7.30;;;;;;;9.76;100.00;95899.13;1031152;28;20527;-70
2021/08/29 01:13:05;;;;;;;9.15;7.35;;;;;;;9.79;100.00;95901.25;1019812;28;20031;-70
2021/08/29 01:13:44;;;;;;;8.68;7.78;;;;;;;9.80;100.00;95908.88;1027053;28;20034;-71
2021/08/29 01:14:15;;;;;;;8.88;7.22;;;;;;;9.77;100.00;95903.34;1031013;28;20026;-70
2021/08/29 01:14:46;;;;;;;8.27;7.10;;;;;;;9.78;100.00;95903.09;1019256;29;20267;-70
2021/08/29 01:15:16;;;;;;;10.82;7.45;;;;;;;9.76;100.00;95899.13;1022994;29;20271;-71
2021/08/29 01:15:47;;;;;;;9.25;6.68;;;;;;;9.75;100.00;95903.59;1027466;28;20034;-71
2021/08/29 01:16:21;;;;;;;8.70;6.80;;;;;;;9.79;100.00;95901.25;1027293;28;20021;-70
2021/08/29 01:16:53;;;;;;;9.38;7.78;;;;;;;9.81;100.00;95901.78;1030426;28;20034;-70
2021/08/29 01:17:25;;;;;;;7.78;6.70;;;;;;;9.79;100.00;95899.44;1025792;28;20278;-70
2021/08/29 01:17:56;;;;;;;8.25;6.93;;;;;;;9.76;100.00;95902.56;1031925;28;20293;-70
2021/08/29 01:18:26;;;;;;;10.13;8.23;;;;;;;9.76;100.00;95901.75;1027499;28;21161;-71
2021/08/29 01:18:57;;;;;;;8.20;7.20;;;;;;;9.80;100.00;95905.47;1027954;28;20266;-70
2021/08/29 01:19:47;;;;;;;7.85;7.05;;;;;;;9.79;100.00;95901.25;1027836;28;20019;-70
2021/08/29 01:20:25;;;;;;;9.98;6.85;;;;;;;9.72;100.00;95888.38;1023732;29;20306;-71
2021/08/29 01:21:04;;;;;;;8.82;7.50;;;;;;;9.78;100.00;95899.69;1019084;29;20267;-71
2021/08/29 01:21:35;;;;;;;7.47;6.10;;;;;;;9.76;100.00;95896.50;1029505;28;20262;-71
2021/08/29 01:22:06;;;;;;;8.80;7.22;;;;;;;9.77;100.00;95895.50;1023002;29;20302;-71
2021/08/29 01:22:38;;;;;;;8.50;6.47;;;;;;;9.76;100.00;95904.38;1023290;29;20267;-70
2021/08/29 01:23:08;;;;;;;8.02;7.10;;;;;;;9.74;100.00;95901.22;1026886;28;20266;-70
2021/08/29 01:23:49;;;;;;;8.35;7.38;;;;;;;9.76;100.00;95901.75;1026866;28;20294;-71
2021/08/29 01:24:20;;;;;;;8.43;7.47;;;;;;;9.75;100.00;95902.81;1023182;28;20397;-71
2021/08/29 01:24:50;;;;;;;8.75;7.43;;;;;;;9.75;100.00;95908.03;1025220;28;20262;-71
2021/08/29 01:25:26;;;;;;;10.30;7.03;;;;;;;9.75;100.00;95900.19;1026784;28;20477;-70
2021/08/29 01:26:01;;;;;;;9.57;7.50;;;;;;;9.75;100.00;95905.41;1031071;28;20100;-70
2021/08/29 01:26:37;;;;;;;9.63;7.90;;;;;;;9.70;100.00;95898.34;1034951;28;20279;-70
2021/08/29 01:27:17;;;;;;;8.00;7.20;;;;;;;9.73;100.00;95894.44;1027470;28;20313;-70
2021/08/29 01:27:59;;;;;;;9.90;7.95;;;;;;;9.72;100.00;95900.69;1027159;28;20253;-70
2021/08/29 01:29:02;;;;;;;9.30;7.05;;;;;;;9.70;100.00;95903.56;1026592;28;20516;-71
2021/08/29 01:29:33;;;;;;;9.15;7.38;;;;;;;9.67;100.00;95899.63;1030551;28;20286;-69
2021/08/29 01:30:03;;;;;;;8.50;7.50;;;;;;;9.72;100.00;95904.09;1026847;28;20285;-70
2021/08/29 01:30:34;;;;;;;9.20;7.05;;;;;;;9.72;100.00;95901.47;1018856;28;20079;-70
2021/08/29 01:31:04;;;;;;;9.98;7.15;;;;;;;9.71;100.00;95904.34;1027383;28;20046;-70
2021/08/29 01:31:35;;;;;;;8.27;6.97;;;;;;;9.70;100.00;95897.53;1026153;28;20019;-71
2021/08/29 01:32:06;;;;;;;7.97;6.60;;;;;;;9.63;100.00;95888.06;1030966;28;20021;-70
2021/08/29 01:32:37;;;;;;;9.40;7.55;;;;;;;9.72;100.00;95890.19;1023051;29;20263;-70
2021/08/29 01:33:08;;;;;;;11.57;7.35;;;;;;;9.73;100.00;95897.03;1030890;28;20289;-70
2021/08/29 01:33:38;;;;;;;9.15;7.78;;;;;;;9.72;100.00;95896.22;1026926;28;20473;-71
2021/08/29 01:34:11;;;;;;;8.75;6.55;;;;;;;9.68;100.00;95890.72;1022780;29;20050;-70
2021/08/29 01:34:42;;;;;;;8.35;7.30;;;;;;;9.71;100.00;95904.34;1029926;28;20014;-70
2021/08/29 01:35:12;;;;;;;8.75;7.70;;;;;;;9.71;100.00;95889.41;1031187;28;20261;-70
2021/08/29 01:35:45;;;;;;;8.48;7.32;;;;;;;9.68;100.00;95901.19;1031159;28;20022;-70
2021/08/29 01:36:16;;;;;;;8.93;7.82;;;;;;;9.70;100.00;95893.09;1022142;29;20267;-72
2021/08/29 01:36:51;;;;;;;11.10;7.95;;;;;;;9.70;100.00;95895.72;1027017;28;20022;-70
2021/08/29 01:37:22;;;;;;;9.48;7.65;;;;;;;9.66;100.00;95890.19;1026751;28;20666;-70
2021/08/29 01:37:52;;;;;;;9.68;8.00;;;;;;;9.71;100.00;95899.91;1023300;29;20266;-71
2021/08/29 01:38:23;;;;;;;8.07;7.05;;;;;;;9.75;100.00;95902.81;1027623;28;20019;-71
2021/08/29 01:38:53;;;;;;;10.60;7.30;;;;;;;9.75;100.00;95894.94;1026498;28;20057;-69
2021/08/29 01:39:24;;;;;;;9.70;8.15;;;;;;;9.71;100.00;95893.88;1023234;29;20027;-70
2021/08/29 01:39:54;;;;;;;10.25;8.10;;;;;;;9.70;100.00;95892.31;1026943;28;20030;-71
2021/08/29 01:40:25;;;;;;;9.40;7.95;;;;;;;9.75;100.00;95897.56;1027716;28;20029;-70
2021/08/29 01:40:55;;;;;;;10.38;8.07;;;;;;;9.75;100.00;95900.97;1022792;28;20394;-70
2021/08/29 01:41:26;;;;;;;9.75;7.07;;;;;;;9.70;100.00;95894.94;1028703;28;20037;-70
2021/08/29 01:41:56;;;;;;;8.13;7.30;;;;;;;9.74;100.00;95894.16;1027325;28;20049;-70
2021/08/29 01:42:27;;;;;;;8.02;7.22;;;;;;;9.73;100.00;95895.22;1023393;28;20019;-70
2021/08/29 01:42:58;;;;;;;8.93;7.32;;;;;;;9.70;100.00;95887.84;1018969;29;20031;-70
2021/08/29 01:43:28;;;;;;;7.97;6.90;;;;;;;9.71;100.00;95892.03;1026468;28;20058;-71
2021/08/29 01:43:59;;;;;;;10.32;7.57;;;;;;;9.74;100.00;95896.78;1028830;28;20776;-70
2021/08/29 01:44:29;;;;;;;7.70;6.78;;;;;;;9.74;100.00;95903.84;1033016;28;20026;-70
2021/08/29 01:45:00;;;;;;;8.30;6.90;;;;;;;9.75;100.00;95897.56;1025969;28;20061;-71
2021/08/29 01:45:33;;;;;;;8.45;7.20;;;;;;;9.73;100.00;95897.81;1023149;28;20269;-69
2021/08/29 01:46:04;;;;;;;8.20;6.57;;;;;;;9.72;100.00;95896.22;1025497;28;20046;-71
2021/08/29 01:46:35;;;;;;;9.27;7.40;;;;;;;9.75;100.00;95894.94;1030809;28;20786;-71
2021/08/29 01:47:05;;;;;;;9.27;6.70;;;;;;;9.75;100.00;95893.09;1025399;28;20042;-70
2021/08/29 01:47:36;;;;;;;7.45;6.55;;;;;;;9.76;100.00;95896.50;1026786;28;20066;-69
2021/08/29 01:48:06;;;;;;;7.50;6.70;;;;;;;9.70;100.00;95890.47;1030630;28;20427;-69
2021/08/29 01:48:40;;;;;;;8.50;7.60;;;;;;;9.76;100.00;95896.50;1022996;29;20027;-68
2021/08/29 01:49:11;;;;;;;9.95;8.18;;;;;;;9.75;100.00;95893.09;1020253;28;20396;-70
2021/08/29 01:49:42;;;;;;;9.35;7.95;;;;;;;9.78;100.00;95891.81;1022914;29;20259;-68
2021/08/29 01:50:12;;;;;;;7.68;6.85;;;;;;;9.70;100.00;95887.84;1031053;28;20018;-69
2021/08/29 01:50:43;;;;;;;7.40;6.63;;;;;;;9.67;100.00;95878.66;1028202;28;20903;-69
2021/08/29 01:51:13;;;;;;;8.77;7.15;;;;;;;9.63;100.00;95882.81;1022103;28;20019;-68
2021/08/29 01:51:44;;;;;;;8.63;7.38;;;;;;;9.68;100.00;95889.91;1030679;28;20230;-69
2021/08/29 01:52:15;;;;;;;8.45;6.43;;;;;;;9.62;100.00;95890.94;1024399;28;20464;-68
2021/08/29 01:52:45;;;;;;;7.88;6.60;;;;;;;9.60;100.00;95878.09;1027001;28;20015;-69
2021/08/29 01:53:16;;;;;;;10.57;7.22;;;;;;;9.67;100.00;95891.75;1026676;28;20026;-71
2021/08/29 01:53:46;;;;;;;8.38;7.20;;;;;;;9.66;100.00;95890.19;1026832;28;20058;-69
2021/08/29 01:54:17;;;;;;;10.27;8.15;;;;;;;9.66;100.00;95890.19;1022641;28;20050;-71
2021/08/29 01:54:47;;;;;;;9.77;7.85;;;;;;;9.66;100.00;95899.88;1022951;28;20027;-68
2021/08/29 01:55:18;;;;;;;8.07;6.70;;;;;;;9.64;100.00;95889.63;1030769;28;20113;-69
2021/08/29 01:55:49;;;;;;;6.90;6.13;;;;;;;9.63;100.00;95895.94;1030751;28;20499;-69
2021/08/29 01:56:20;;;;;;;7.60;6.70;;;;;;;9.60;100.00;95899.06;1022882;29;20460;-69
2021/08/29 01:57:03;;;;;;;7.15;6.43;;;;;;;9.64;100.00;95886.22;1022888;29;20273;-69
2021/08/29 01:57:34;;;;;;;7.15;6.43;;;;;;;9.59;100.00;95887.00;1022453;28;20049;-70
2021/08/29 01:58:04;;;;;;;7.80;6.78;;;;;;;9.60;100.00;95899.06;1026905;28;20764;-69
2021/08/29 01:58:35;;;;;;;11.23;6.88;;;;;;;9.57;100.00;95893.53;1022967;29;20071;-69
2021/08/29 01:59:05;;;;;;;8.55;7.28;;;;;;;9.58;100.00;95895.88;1030424;28;20027;-70
2021/08/29 01:59:36;;;;;;;8.25;7.20;;;;;;;9.58;100.00;95892.47;1022804;28;20020;-69
2021/08/29 02:00:09;;;;;;;8.05;6.82;;;;;;;9.54;100.00;95886.94;1026937;28;20054;-69
2021/08/29 02:01:05;;;;;;;7.78;7.00;;;;;;;9.59;100.00;95896.66;1022874;29;20388;-69
2021/08/29 02:01:35;;;;;;;8.63;6.75;;;;;;;9.56;100.00;95895.38;1028963;28;20327;-69
2021/08/29 02:02:06;;;;;;;9.60;6.30;;;;;;;9.55;100.00;95890.34;1026518;28;20381;-69
2021/08/29 02:02:37;;;;;;;8.95;6.80;;;;;;;9.54;100.00;95894.81;1022316;28;20087;-70
2021/08/29 02:03:07;;;;;;;8.30;6.90;;;;;;;9.53;100.00;95895.88;1026221;28;20023;-69
2021/08/29 02:03:42;;;;;;;11.02;7.18;;;;;;;9.55;100.00;95890.34;1031019;28;20022;-69
2021/08/29 02:04:12;;;;;;;9.18;6.65;;;;;;;9.52;100.00;95894.25;1028330;28;20415;-69
2021/08/29 02:04:44;;;;;;;8.70;7.10;;;;;;;9.52;100.00;95902.13;1030670;28;20268;-69
2021/08/29 02:05:14;;;;;;;10.18;7.13;;;;;;;9.50;100.00;95893.75;1029239;28;20058;-69
2021/08/29 02:05:45;;;;;;;9.38;7.68;;;;;;;9.54;100.00;95894.03;1030711;28;20348;-71
2021/08/29 02:06:27;;;;;;;10.07;7.85;;;;;;;9.52;100.00;95894.25;1026168;28;20011;-69
2021/08/29 02:07:18;;;;;;;7.93;6.70;;;;;;;9.53;100.00;95898.47;1026751;28;20258;-69
2021/08/29 02:07:52;;;;;;;9.32;6.75;;;;;;;9.54;100.00;95899.25;1026431;28;20258;-69
2021/08/29 02:08:22;;;;;;;9.98;7.00;;;;;;;9.51;100.00;95897.94;1022684;29;20267;-69
2021/08/29 02:09:04;;;;;;;9.90;7.60;;;;;;;9.53;100.00;95893.25;1030732;28;20261;-69
2021/08/29 02:09:34;;;;;;;9.13;7.43;;;;;;;9.48;100.00;95885.34;1031614;28;20022;-69
2021/08/29 02:10:06;;;;;;;10.05;7.60;;;;;;;9.53;100.00;95890.63;1022623;29;20765;-69
2021/08/29 02:10:37;;;;;;;8.18;7.15;;;;;;;9.53;100.00;95887.22;1023085;28;20011;-69
2021/08/29 02:11:07;;;;;;;7.97;6.90;;;;;;;9.52;100.00;95891.66;1034191;28;20267;-68
2021/08/29 02:11:40;;;;;;;8.30;7.07;;;;;;;9.53;100.00;95895.06;1021983;28;20019;-68
2021/08/29 02:12:11;;;;;;;9.85;6.53;;;;;;;9.51;100.00;95890.06;1032512;28;20373;-70
2021/08/29 02:12:46;;;;;;;9.45;7.30;;;;;;;9.52;100.00;95890.84;1033934;28;20259;-70
2021/08/29 02:13:18;;;;;;;9.52;7.40;;;;;;;9.52;100.00;95889.03;1026610;28;20448;-69
2021/08/29 02:13:49;;;;;;;8.70;6.78;;;;;;;9.52;100.00;95890.84;1026584;28;20545;-70
2021/08/29 02:14:21;;;;;;;12.63;7.13;;;;;;;9.49;100.00;95886.94;1022342;28;20358;-69
2021/08/29 02:15:08;;;;;;;8.60;6.57;;;;;;;9.49;100.00;95897.41;1022564;29;20889;-71
2021/08/29 02:15:40;;;;;;;8.02;6.47;;;;;;;9.47;100.00;95889.00;1030633;28;20257;-68
2021/08/29 02:16:14;;;;;;;9.02;6.88;;;;;;;9.47;100.00;95889.00;1030528;28;20253;-68
2021/08/29 02:16:44;;;;;;;8.55;6.90;;;;;;;9.47;100.00;95888.22;1030841;28;20870;-69
2021/08/29 02:17:15;;;;;;;8.10;6.60;;;;;;;9.47;100.00;95886.38;1034650;28;20272;-71
2021/08/29 02:17:45;;;;;;;9.35;7.07;;;;;;;9.48;100.00;95893.19;1022930;28;20019;-71
2021/08/29 02:18:16;;;;;;;10.02;6.75;;;;;;;9.44;100.00;95881.66;1026146;28;20026;-69
2021/08/29 02:18:47;;;;;;;11.38;7.68;;;;;;;9.49;100.00;95886.13;1030759;28;20069;-71
2021/08/29 02:19:22;;;;;;;9.57;7.05;;;;;;;9.50;100.00;95885.09;1030439;28;20073;-70
2021/08/29 02:19:53;;;;;;;9.73;7.65;;;;;;;9.44;100.00;95871.16;1033528;28;20364;-68
2021/08/29 02:20:23;;;;;;;9.23;7.30;;;;;;;9.44;100.00;95876.41;1029986;28;20385;-69
2021/08/29 02:20:54;;;;;;;8.85;6.68;;;;;;;9.50;100.00;95887.72;1030733;28;20026;-71
2021/08/29 02:21:26;;;;;;;10.63;7.45;;;;;;;9.49;100.00;95881.69;1032378;28;20120;-68
2021/08/29 02:21:56;;;;;;;9.70;7.07;;;;;;;9.49;100.00;95892.16;1026637;28;20031;-69
2021/08/29 02:22:27;;;;;;;9.68;6.72;;;;;;;9.50;100.00;95883.25;1030590;28;20643;-70
2021/08/29 02:22:57;;;;;;;10.93;7.65;;;;;;;9.45;100.00;95873.53;1022651;28;20109;-69
2021/08/29 02:23:29;;;;;;;8.05;7.00;;;;;;;9.45;100.00;95872.75;1022637;29;20664;-70
2021/08/29 02:24:01;;;;;;;9.88;7.03;;;;;;;9.42;100.00;95871.44;1030528;28;20039;-70
2021/08/29 02:24:32;;;;;;;9.20;7.85;;;;;;;9.44;100.00;95868.56;1030492;28;20274;-71
2021/08/29 02:25:03;;;;;;;8.98;7.57;;;;;;;9.52;100.00;95880.38;1028940;28;20647;-70
2021/08/29 02:25:33;;;;;;;11.32;7.55;;;;;;;9.50;100.00;95883.25;1026718;28;20026;-70
2021/08/29 02:26:04;;;;;;;12.10;8.00;;;;;;;9.52;100.00;95883.78;1026733;28;20764;-70
2021/08/29 02:26:34;;;;;;;10.85;7.60;;;;;;;9.49;100.00;95875.63;1028872;28;20440;-70
2021/08/29 02:27:05;;;;;;;9.73;7.85;;;;;;;9.53;100.00;95885.38;1022834;29;20499;-71
2021/08/29 02:27:35;;;;;;;9.88;7.90;;;;;;;9.54;100.00;95880.94;1022480;28;20130;-70
2021/08/29 02:28:06;;;;;;;10.57;7.82;;;;;;;9.52;100.00;95869.91;1026463;28;20070;-69
2021/08/29 02:28:36;;;;;;;10.02;7.57;;;;;;;9.54;100.00;95879.09;1030853;28;20022;-68
2021/08/29 02:29:09;;;;;;;8.88;7.47;;;;;;;9.54;100.00;95879.09;1022679;29;20369;-69
2021/08/29 02:29:40;;;;;;;7.80;6.93;;;;;;;9.48;100.00;95872.25;1026521;28;20050;-69
2021/08/29 02:30:11;;;;;;;8.55;7.50;;;;;;;9.42;100.00;95868.00;1026392;28;20667;-68